sensor_id;sensor_type;location;lat;lon;timestamp;pressure;altitude;pressure_sealevel;temperature;humidity
37648;BME280;23490;53.656;10.076;2023-07-24T00:00:14;98150.19;;;-145.95;100.00
37648;BME280;23490;53.656;10.076;2023-07-24T00:02:39;98096.53;;;-145.95;100.00
37648;BME280;23490;53.656;10.076;2023-07-24T00:05:05;98137.81;;;-145.95;100.00
37648;BME280;23490;53.656;10.076;2023-07-24T00:07:30;98119.22;;;-145.95;100.00
37648;BME280;23490;53.656;10.076;2023-07-24T00:09:55;98158.47;;;-145.95;100.00
37648;BME280;23490;53.656;10.076;2023-07-24T00:12:21;98170.84;;;-145.95;100.00
37648;BME280;23490;53.656;10.076;2023-07-24T00:14:47;98162.59;;;-145.95;100.00
37648;BME280;23490;53.656;10.076;2023-07-24T00:17:12;98133.69;;;-145.95;100.00
37648;BME280;23490;53.656;10.076;2023-07-24T00:19:39;98154.31;;;-145.95;100.00
37648;BME280;23490;53.656;10.076;2023-07-24T00:22:04;98139.88;;;-145.95;100.00
37648;BME280;23490;53.656;10.076;2023-07-24T00:24:31;98137.81;;;-145.95;100.00
37648;BME280;23490;53.656;10.076;2023-07-24T00:26:57;98172.91;;;-145.95;100.00
37648;BME280;23490;53.656;10.076;2023-07-24T00:29:22;98162.59;;;-145.95;100.00
37648;BME280;23490;53.656;10.076;2023-07-24T00:31:47;98144.00;;;-145.95;100.00
37648;BME280;23490;53.656;10.076;2023-07-24T00:34:16;98170.84;;;-145.95;100.00
37648;BME280;23490;53.656;10.076;2023-07-24T00:36:42;98162.59;;;-145.95;100.00
37648;BME280;23490;53.656;10.076;2023-07-24T00:39:07;98131.63;;;-145.95;100.00
37648;BME280;23490;53.656;10.076;2023-07-24T00:41:32;98162.59;;;-145.95;100.00
37648;BME280;23490;53.656;10.076;2023-07-24T00:43:58;98199.75;;;-145.95;100.00
37648;BME280;23490;53.656;10.076;2023-07-24T00:46:24;98129.56;;;-145.95;100.00
37648;BME280;23490;53.656;10.076;2023-07-24T00:48:50;98208.00;;;-145.95;100.00
37648;BME280;23490;53.656;10.076;2023-07-24T00:51:16;98228.66;;;-145.95;100.00
37648;BME280;23490;53.656;10.076;2023-07-24T00:53:42;98146.06;;;-145.95;100.00
37648;BME280;23490;53.656;10.076;2023-07-24T00:56:08;98170.84;;;-145.95;100.00
37648;BME280;23490;53.656;10.076;2023-07-24T00:58:37;98162.59;;;-145.95;100.00
37648;BME280;23490;53.656;10.076;2023-07-24T01:01:03;98158.47;;;-145.95;100.00
37648;BME280;23490;53.656;10.076;2023-07-24T01:03:33;98179.09;;;-145.95;100.00
37648;BME280;23490;53.656;10.076;2023-07-24T01:06:01;98185.28;;;-145.95;100.00
37648;BME280;23490;53.656;10.076;2023-07-24T01:08:27;98203.88;;;-145.95;100.00
37648;BME280;23490;53.656;10.076;2023-07-24T01:10:53;98152.25;;;-145.95;100.00
37648;BME280;23490;53.656;10.076;2023-07-24T01:13:24;98129.56;;;-145.95;100.00
37648;BME280;23490;53.656;10.076;2023-07-24T01:15:56;98121.28;;;-145.95;100.00
37648;BME280;23490;53.656;10.076;2023-07-24T01:18:26;98187.34;;;-145.95;100.00
37648;BME280;23490;53.656;10.076;2023-07-24T01:20:55;98166.72;;;-145.95;100.00
37648;BME280;23490;53.656;10.076;2023-07-24T01:23:40;98191.50;;;-145.95;100.00
37648;BME280;23490;53.656;10.076;2023-07-24T01:26:09;98191.50;;;-145.95;100.00
37648;BME280;23490;53.656;10.076;2023-07-24T01:28:36;98183.22;;;-145.95;100.00
37648;BME280;23490;53.656;10.076;2023-07-24T01:31:01;98162.59;;;-145.95;100.00
37648;BME280;23490;53.656;10.076;2023-07-24T01:33:27;98150.19;;;-145.95;100.00
37648;BME280;23490;53.656;10.076;2023-07-24T01:35:57;98121.28;;;-145.95;100.00
37648;BME280;23490;53.656;10.076;2023-07-24T01:38:25;98137.81;;;-145.95;100.00
37648;BME280;23490;53.656;10.076;2023-07-24T01:40:55;98162.59;;;-145.95;100.00
37648;BME280;23490;53.656;10.076;2023-07-24T01:43:21;98117.16;;;-145.95;100.00
37648;BME280;23490;53.656;10.076;2023-07-24T01:45:47;98137.81;;;-145.95;100.00
37648;BME280;23490;53.656;10.076;2023-07-24T01:48:12;98141.94;;;-145.95;100.00
37648;BME280;23490;53.656;10.076;2023-07-24T01:50:37;98146.06;;;-145.95;100.00
37648;BME280;23490;53.656;10.076;2023-07-24T01:53:03;98146.06;;;-145.95;100.00
37648;BME280;23490;53.656;10.076;2023-07-24T01:55:29;98141.94;;;-145.95;100.00
37648;BME280;23490;53.656;10.076;2023-07-24T01:57:54;98137.81;;;-145.95;100.00
37648;BME280;23490;53.656;10.076;2023-07-24T02:00:20;98216.25;;;-145.95;100.00
37648;BME280;23490;53.656;10.076;2023-07-24T02:02:45;98166.72;;;-145.95;100.00
37648;BME280;23490;53.656;10.076;2023-07-24T02:05:10;98150.19;;;-145.95;100.00
37648;BME280;23490;53.656;10.076;2023-07-24T02:07:36;98162.59;;;-145.95;100.00
37648;BME280;23490;53.656;10.076;2023-07-24T02:10:02;98172.91;;;-145.95;100.00
37648;BME280;23490;53.656;10.076;2023-07-24T02:12:27;98187.34;;;-145.95;100.00
37648;BME280;23490;53.656;10.076;2023-07-24T02:14:53;98168.78;;;-145.95;100.00
37648;BME280;23490;53.656;10.076;2023-07-24T02:17:19;98191.50;;;-145.95;100.00
37648;BME280;23490;53.656;10.076;2023-07-24T02:19:45;98187.34;;;-145.95;100.00
37648;BME280;23490;53.656;10.076;2023-07-24T02:22:11;98179.09;;;-145.95;100.00
37648;BME280;23490;53.656;10.076;2023-07-24T02:24:37;98154.31;;;-145.95;100.00
37648;BME280;23490;53.656;10.076;2023-07-24T02:27:04;98201.81;;;-145.95;100.00
37648;BME280;23490;53.656;10.076;2023-07-24T02:29:29;98170.84;;;-145.95;100.00
37648;BME280;23490;53.656;10.076;2023-07-24T02:31:58;98146.06;;;-145.95;100.00
37648;BME280;23490;53.656;10.076;2023-07-24T02:34:23;98253.44;;;-145.95;100.00
37648;BME280;23490;53.656;10.076;2023-07-24T02:36:52;98181.16;;;-145.95;100.00
37648;BME280;23490;53.656;10.076;2023-07-24T02:39:18;98174.97;;;-145.95;100.00
37648;BME280;23490;53.656;10.076;2023-07-24T02:41:44;98187.34;;;-145.95;100.00
37648;BME280;23490;53.656;10.076;2023-07-24T02:44:10;98205.94;;;-145.95;100.00
37648;BME280;23490;53.656;10.076;2023-07-24T02:46:35;98216.25;;;-145.95;100.00
37648;BME280;23490;53.656;10.076;2023-07-24T02:49:01;98177.03;;;-145.95;100.00
37648;BME280;23490;53.656;10.076;2023-07-24T02:51:26;98236.91;;;-145.95;100.00
37648;BME280;23490;53.656;10.076;2023-07-24T02:53:53;98224.53;;;-145.95;100.00
37648;BME280;23490;53.656;10.076;2023-07-24T02:56:19;98197.69;;;-145.95;100.00
37648;BME280;23490;53.656;10.076;2023-07-24T02:58:45;98212.13;;;-145.95;100.00
37648;BME280;23490;53.656;10.076;2023-07-24T03:01:11;98245.16;;;-145.95;100.00
37648;BME280;23490;53.656;10.076;2023-07-24T03:03:40;98228.66;;;-145.95;100.00
37648;BME280;23490;53.656;10.076;2023-07-24T03:06:05;98236.91;;;-145.95;100.00
37648;BME280;23490;53.656;10.076;2023-07-24T03:08:30;98230.72;;;-145.95;100.00
37648;BME280;23490;53.656;10.076;2023-07-24T03:10:57;98249.28;;;-145.95;100.00
37648;BME280;23490;53.656;10.076;2023-07-24T03:13:23;98249.28;;;-145.95;100.00
37648;BME280;23490;53.656;10.076;2023-07-24T03:15:53;98197.69;;;-145.95;100.00
37648;BME280;23490;53.656;10.076;2023-07-24T03:18:19;98208.00;;;-145.95;100.00
37648;BME280;23490;53.656;10.076;2023-07-24T03:20:44;98189.44;;;-145.95;100.00
37648;BME280;23490;53.656;10.076;2023-07-24T03:23:09;98187.34;;;-145.95;100.00
37648;BME280;23490;53.656;10.076;2023-07-24T03:25:35;98208.00;;;-145.95;100.00
37648;BME280;23490;53.656;10.076;2023-07-24T03:28:01;98191.50;;;-145.95;100.00
37648;BME280;23490;53.656;10.076;2023-07-24T03:30:26;98228.66;;;-145.95;100.00
37648;BME280;23490;53.656;10.076;2023-07-24T03:32:51;98203.88;;;-145.95;100.00
37648;BME280;23490;53.656;10.076;2023-07-24T03:35:18;98269.94;;;-145.95;100.00
37648;BME280;23490;53.656;10.076;2023-07-24T03:37:44;98205.94;;;-145.95;100.00
37648;BME280;23490;53.656;10.076;2023-07-24T03:40:09;98241.03;;;-145.95;100.00
37648;BME280;23490;53.656;10.076;2023-07-24T03:42:35;98212.13;;;-145.95;100.00
37648;BME280;23490;53.656;10.076;2023-07-24T03:45:00;98226.59;;;-145.95;100.00
37648;BME280;23490;53.656;10.076;2023-07-24T03:47:25;98193.56;;;-145.95;100.00
37648;BME280;23490;53.656;10.076;2023-07-24T03:49:51;98208.00;;;-145.95;100.00
37648;BME280;23490;53.656;10.076;2023-07-24T03:52:16;98191.50;;;-145.95;100.00
37648;BME280;23490;53.656;10.076;2023-07-24T03:54:42;98191.50;;;-145.95;100.00
37648;BME280;23490;53.656;10.076;2023-07-24T03:57:08;98216.25;;;-145.95;100.00
37648;BME280;23490;53.656;10.076;2023-07-24T03:59:34;98179.09;;;-145.95;100.00
37648;BME280;23490;53.656;10.076;2023-07-24T04:01:59;98189.44;;;-145.95;100.00
37648;BME280;23490;53.656;10.076;2023-07-24T04:04:24;98195.63;;;-145.95;100.00
37648;BME280;23490;53.656;10.076;2023-07-24T04:06:50;98185.28;;;-145.95;100.00
37648;BME280;23490;53.656;10.076;2023-07-24T04:09:16;98166.72;;;-145.95;100.00
37648;BME280;23490;53.656;10.076;2023-07-24T04:11:42;98137.81;;;-145.95;100.00
37648;BME280;23490;53.656;10.076;2023-07-24T04:14:08;98158.47;;;-145.95;100.00
37648;BME280;23490;53.656;10.076;2023-07-24T04:16:33;98137.81;;;-145.95;100.00
37648;BME280;23490;53.656;10.076;2023-07-24T04:18:58;98156.41;;;-145.95;100.00
37648;BME280;23490;53.656;10.076;2023-07-24T04:21:24;98172.91;;;-145.95;100.00
37648;BME280;23490;53.656;10.076;2023-07-24T04:23:49;98162.59;;;-145.95;100.00
37648;BME280;23490;53.656;10.076;2023-07-24T04:26:14;98154.31;;;-145.95;100.00
37648;BME280;23490;53.656;10.076;2023-07-24T04:28:39;98160.53;;;-145.95;100.00
37648;BME280;23490;53.656;10.076;2023-07-24T04:31:05;98166.72;;;-145.95;100.00
37648;BME280;23490;53.656;10.076;2023-07-24T04:33:30;98208.00;;;-145.95;100.00
37648;BME280;23490;53.656;10.076;2023-07-24T04:35:56;98150.19;;;-145.95;100.00
37648;BME280;23490;53.656;10.076;2023-07-24T04:38:22;98131.63;;;-145.95;100.00
37648;BME280;23490;53.656;10.076;2023-07-24T04:40:48;98104.78;;;-145.95;100.00
37648;BME280;23490;53.656;10.076;2023-07-24T04:43:13;98133.69;;;-145.95;100.00
37648;BME280;23490;53.656;10.076;2023-07-24T04:45:39;98080.00;;;-145.95;100.00
37648;BME280;23490;53.656;10.076;2023-07-24T04:48:04;98108.91;;;-145.95;100.00
37648;BME280;23490;53.656;10.076;2023-07-24T04:50:30;98121.28;;;-145.95;100.00
37648;BME280;23490;53.656;10.076;2023-07-24T04:52:55;98133.69;;;-145.95;100.00
37648;BME280;23490;53.656;10.076;2023-07-24T04:55:22;98129.56;;;-145.95;100.00
37648;BME280;23490;53.656;10.076;2023-07-24T04:57:47;98117.16;;;-145.95;100.00
37648;BME280;23490;53.656;10.076;2023-07-24T05:00:13;98100.66;;;-145.95;100.00
37648;BME280;23490;53.656;10.076;2023-07-24T05:02:39;98156.41;;;-145.95;100.00
37648;BME280;23490;53.656;10.076;2023-07-24T05:05:05;98100.66;;;-145.95;100.00
37648;BME280;23490;53.656;10.076;2023-07-24T05:07:31;98080.00;;;-145.95;100.00
37648;BME280;23490;53.656;10.076;2023-07-24T05:09:57;98119.22;;;-145.95;100.00
37648;BME280;23490;53.656;10.076;2023-07-24T05:12:22;98121.28;;;-145.95;100.00
37648;BME280;23490;53.656;10.076;2023-07-24T05:14:48;98051.09;;;-145.95;100.00
37648;BME280;23490;53.656;10.076;2023-07-24T05:17:13;98071.75;;;-145.95;100.00
37648;BME280;23490;53.656;10.076;2023-07-24T05:19:39;98088.25;;;-145.95;100.00
37648;BME280;23490;53.656;10.076;2023-07-24T05:22:04;98084.13;;;-145.95;100.00
37648;BME280;23490;53.656;10.076;2023-07-24T05:24:29;98059.38;;;-145.95;100.00
37648;BME280;23490;53.656;10.076;2023-07-24T05:26:55;98080.00;;;-145.95;100.00
37648;BME280;23490;53.656;10.076;2023-07-24T05:29:21;98018.06;;;-145.95;100.00
37648;BME280;23490;53.656;10.076;2023-07-24T05:31:47;98022.22;;;-145.95;100.00
37648;BME280;23490;53.656;10.076;2023-07-24T05:34:12;98057.31;;;-145.95;100.00
37648;BME280;23490;53.656;10.076;2023-07-24T05:36:37;98080.00;;;-145.95;100.00
37648;BME280;23490;53.656;10.076;2023-07-24T05:39:03;97974.72;;;-145.95;100.00
37648;BME280;23490;53.656;10.076;2023-07-24T05:41:28;98086.19;;;-145.95;100.00
37648;BME280;23490;53.656;10.076;2023-07-24T05:43:53;98030.47;;;-145.95;100.00
37648;BME280;23490;53.656;10.076;2023-07-24T05:46:20;98005.69;;;-145.95;100.00
37648;BME280;23490;53.656;10.076;2023-07-24T05:48:46;98009.81;;;-145.95;100.00
37648;BME280;23490;53.656;10.076;2023-07-24T05:51:12;97997.44;;;-145.95;100.00
37648;BME280;23490;53.656;10.076;2023-07-24T05:53:37;98009.81;;;-145.95;100.00
37648;BME280;23490;53.656;10.076;2023-07-24T05:56:02;98013.94;;;-145.95;100.00
37648;BME280;23490;53.656;10.076;2023-07-24T05:58:28;98028.41;;;-145.95;100.00
37648;BME280;23490;53.656;10.076;2023-07-24T06:00:54;97960.28;;;-145.95;100.00
37648;BME280;23490;53.656;10.076;2023-07-24T06:03:21;98005.69;;;-145.95;100.00
37648;BME280;23490;53.656;10.076;2023-07-24T06:05:50;97982.97;;;-145.95;100.00
37648;BME280;23490;53.656;10.076;2023-07-24T06:08:16;98026.34;;;-145.95;100.00
37648;BME280;23490;53.656;10.076;2023-07-24T06:10:41;97989.19;;;-145.95;100.00
37648;BME280;23490;53.656;10.076;2023-07-24T06:13:09;97980.91;;;-145.95;100.00
37648;BME280;23490;53.656;10.076;2023-07-24T06:15:34;97927.25;;;-145.95;100.00
37648;BME280;23490;53.656;10.076;2023-07-24T06:18:00;97939.63;;;-145.95;100.00
37648;BME280;23490;53.656;10.076;2023-07-24T06:20:25;97954.09;;;-145.95;100.00
37648;BME280;23490;53.656;10.076;2023-07-24T06:22:50;97935.50;;;-145.95;100.00
37648;BME280;23490;53.656;10.076;2023-07-24T06:25:16;97883.91;;;-145.95;100.00
37648;BME280;23490;53.656;10.076;2023-07-24T06:27:41;97947.88;;;-145.95;100.00
37648;BME280;23490;53.656;10.076;2023-07-24T06:30:07;97906.59;;;-145.95;100.00
37648;BME280;23490;53.656;10.076;2023-07-24T06:32:33;97919.00;;;-145.95;100.00
37648;BME280;23490;53.656;10.076;2023-07-24T06:34:58;97900.41;;;-145.95;100.00
37648;BME280;23490;53.656;10.076;2023-07-24T06:37:24;97933.44;;;-145.95;100.00
37648;BME280;23490;53.656;10.076;2023-07-24T06:39:49;97939.63;;;-145.95;99.80
37648;BME280;23490;53.656;10.076;2023-07-24T06:42:14;97888.03;;;-145.95;100.00
37648;BME280;23490;53.656;10.076;2023-07-24T06:44:40;97890.09;;;-145.95;99.89
37648;BME280;23490;53.656;10.076;2023-07-24T06:47:06;97902.47;;;-145.95;99.26
37648;BME280;23490;53.656;10.076;2023-07-24T06:49:31;97962.34;;;-145.95;97.90
37648;BME280;23490;53.656;10.076;2023-07-24T06:51:56;97906.59;;;-145.95;99.78
37648;BME280;23490;53.656;10.076;2023-07-24T06:54:22;97916.91;;;-145.95;100.00
37648;BME280;23490;53.656;10.076;2023-07-24T06:56:47;97910.72;;;-145.95;100.00
37648;BME280;23490;53.656;10.076;2023-07-24T06:59:13;97943.75;;;-145.95;100.00
37648;BME280;23490;53.656;10.076;2023-07-24T07:01:38;97852.94;;;-145.95;100.00
37648;BME280;23490;53.656;10.076;2023-07-24T07:04:04;97877.69;;;-145.95;99.78
37648;BME280;23490;53.656;10.076;2023-07-24T07:06:29;97857.06;;;-145.95;98.71
37648;BME280;23490;53.656;10.076;2023-07-24T07:08:54;97865.31;;;-145.95;97.45
37648;BME280;23490;53.656;10.076;2023-07-24T07:11:20;97850.88;;;-145.95;97.22
37648;BME280;23490;53.656;10.076;2023-07-24T07:13:45;97877.69;;;-145.95;98.75
37648;BME280;23490;53.656;10.076;2023-07-24T07:16:11;97877.69;;;-145.95;99.28
37648;BME280;23490;53.656;10.076;2023-07-24T07:18:36;97885.97;;;-145.95;99.77
37648;BME280;23490;53.656;10.076;2023-07-24T07:21:01;97894.22;;;-145.95;97.70
37648;BME280;23490;53.656;10.076;2023-07-24T07:23:27;97894.22;;;-145.95;98.84
37648;BME280;23490;53.656;10.076;2023-07-24T07:25:52;97867.38;;;-145.95;99.14
37648;BME280;23490;53.656;10.076;2023-07-24T07:28:18;97906.59;;;-145.95;98.25
37648;BME280;23490;53.656;10.076;2023-07-24T07:30:44;97885.97;;;-145.95;98.90
37648;BME280;23490;53.656;10.076;2023-07-24T07:33:09;97873.56;;;-145.95;99.02
37648;BME280;23490;53.656;10.076;2023-07-24T07:35:35;97898.34;;;-145.95;98.84
37648;BME280;23490;53.656;10.076;2023-07-24T07:38:02;97855.00;;;-145.95;98.28
37648;BME280;23490;53.656;10.076;2023-07-24T07:40:27;97896.28;;;-145.95;98.53
37648;BME280;23490;53.656;10.076;2023-07-24T07:42:53;97867.38;;;-145.95;96.48
37648;BME280;23490;53.656;10.076;2023-07-24T07:45:21;97836.41;;;-145.95;96.99
37648;BME280;23490;53.656;10.076;2023-07-24T07:47:46;97828.16;;;-145.95;96.84
37648;BME280;23490;53.656;10.076;2023-07-24T07:50:12;97824.03;;;-145.95;96.51
37648;BME280;23490;53.656;10.076;2023-07-24T07:52:37;97791.00;;;-145.95;97.20
37648;BME280;23490;53.656;10.076;2023-07-24T07:55:03;97881.84;;;-145.95;95.74
37648;BME280;23490;53.656;10.076;2023-07-24T07:57:28;97844.66;;;-145.95;95.95
37648;BME280;23490;53.656;10.076;2023-07-24T07:59:54;97778.63;;;-145.95;95.38
37648;BME280;23490;53.656;10.076;2023-07-24T08:02:20;97890.09;;;-145.95;94.87
37648;BME280;23490;53.656;10.076;2023-07-24T08:04:48;97770.34;;;-145.95;96.88
37648;BME280;23490;53.656;10.076;2023-07-24T08:07:14;97766.22;;;-145.95;95.92
37648;BME280;23490;53.656;10.076;2023-07-24T08:09:39;97778.63;;;-145.95;96.24
37648;BME280;23490;53.656;10.076;2023-07-24T08:12:05;97782.75;;;-145.95;94.99
37648;BME280;23490;53.656;10.076;2023-07-24T08:14:30;97745.59;;;-145.95;94.78
37648;BME280;23490;53.656;10.076;2023-07-24T08:16:56;97753.84;;;-145.95;92.97
37648;BME280;23490;53.656;10.076;2023-07-24T08:19:21;97757.97;;;-145.95;92.92
37648;BME280;23490;53.656;10.076;2023-07-24T08:21:47;97753.84;;;-145.95;93.39
37648;BME280;23490;53.656;10.076;2023-07-24T08:24:12;97739.41;;;-145.95;93.05
37648;BME280;23490;53.656;10.076;2023-07-24T08:26:38;97741.47;;;-145.95;94.26
37648;BME280;23490;53.656;10.076;2023-07-24T08:29:04;97737.34;;;-145.95;92.74
37648;BME280;23490;53.656;10.076;2023-07-24T08:31:31;97741.47;;;-145.95;93.83
37648;BME280;23490;53.656;10.076;2023-07-24T08:33:56;97710.50;;;-145.95;91.57
37648;BME280;23490;53.656;10.076;2023-07-24T08:36:22;97733.22;;;-145.95;91.99
37648;BME280;23490;53.656;10.076;2023-07-24T08:38:47;97658.91;;;-145.95;93.91
37648;BME280;23490;53.656;10.076;2023-07-24T08:41:14;97658.91;;;-145.95;92.12
37648;BME280;23490;53.656;10.076;2023-07-24T08:43:42;97712.56;;;-145.95;90.19
37648;BME280;23490;53.656;10.076;2023-07-24T08:46:08;97733.22;;;-145.95;90.01
37648;BME280;23490;53.656;10.076;2023-07-24T08:48:36;97739.41;;;-145.95;89.62
37648;BME280;23490;53.656;10.076;2023-07-24T08:51:12;97757.97;;;-145.95;90.40
37648;BME280;23490;53.656;10.076;2023-07-24T08:53:42;97755.91;;;-145.95;89.49
37648;BME280;23490;53.656;10.076;2023-07-24T08:56:08;97700.19;;;-145.95;90.90
37648;BME280;23490;53.656;10.076;2023-07-24T08:58:34;97724.94;;;-145.95;92.31
37648;BME280;23490;53.656;10.076;2023-07-24T09:01:00;97766.22;;;-145.95;91.72
37648;BME280;23490;53.656;10.076;2023-07-24T09:03:26;97667.16;;;-145.95;92.37
37648;BME280;23490;53.656;10.076;2023-07-24T09:05:52;97630.00;;;-145.95;87.35
37648;BME280;23490;53.656;10.076;2023-07-24T09:08:38;97675.41;;;-145.95;84.39
37648;BME280;23490;53.656;10.076;2023-07-24T09:11:07;97671.28;;;-145.95;86.38
37648;BME280;23490;53.656;10.076;2023-07-24T09:13:33;97477.25;;;-145.95;84.54
37648;BME280;23490;53.656;10.076;2023-07-24T09:16:00;97411.19;;;-145.95;85.67
37648;BME280;23490;53.656;10.076;2023-07-24T09:18:26;97283.25;;;-145.95;79.67
37648;BME280;23490;53.656;10.076;2023-07-24T09:20:52;97262.59;;;-145.95;76.79
37648;BME280;23490;53.656;10.076;2023-07-24T09:23:28;97256.41;;;-145.95;75.93
37648;BME280;23490;53.656;10.076;2023-07-24T09:25:53;97279.09;;;-145.95;73.98
37648;BME280;23490;53.656;10.076;2023-07-24T09:28:19;97258.47;;;-145.95;75.20
37648;BME280;23490;53.656;10.076;2023-07-24T09:30:54;97246.09;;;-145.95;73.59
37648;BME280;23490;53.656;10.076;2023-07-24T09:33:21;97336.91;;;-145.95;75.11
37648;BME280;23490;53.656;10.076;2023-07-24T09:35:58;97299.75;;;-145.95;75.68
37648;BME280;23490;53.656;10.076;2023-07-24T09:38:24;97407.06;;;-145.95;73.91
37648;BME280;23490;53.656;10.076;2023-07-24T09:40:52;97433.91;;;-145.95;75.21
37648;BME280;23490;53.656;10.076;2023-07-24T09:43:26;97506.16;;;-145.95;78.22
37648;BME280;23490;53.656;10.076;2023-07-24T09:45:52;97456.63;;;-145.95;75.94
37648;BME280;23490;53.656;10.076;2023-07-24T09:48:19;97497.88;;;-145.95;76.41
37648;BME280;23490;53.656;10.076;2023-07-24T09:50:47;97485.50;;;-145.95;77.76
37648;BME280;23490;53.656;10.076;2023-07-24T09:53:32;97454.56;;;-145.95;76.46
37648;BME280;23490;53.656;10.076;2023-07-24T09:56:00;97231.63;;;-145.95;73.97
37648;BME280;23490;53.656;10.076;2023-07-24T09:58:26;97167.66;;;-145.95;70.91
37648;BME280;23490;53.656;10.076;2023-07-24T10:00:54;97206.88;;;-145.95;69.78
37648;BME280;23490;53.656;10.076;2023-07-24T10:03:22;97167.66;;;-145.95;71.72
37648;BME280;23490;53.656;10.076;2023-07-24T10:05:48;97103.69;;;-145.95;70.33
37648;BME280;23490;53.656;10.076;2023-07-24T10:08:16;97200.69;;;-145.95;69.66
37648;BME280;23490;53.656;10.076;2023-07-24T10:10:41;97126.38;;;-145.95;69.57
37648;BME280;23490;53.656;10.076;2023-07-24T10:13:08;97184.16;;;-145.95;70.39
37648;BME280;23490;53.656;10.076;2023-07-24T10:15:36;97147.03;;;-145.95;69.71
37648;BME280;23490;53.656;10.076;2023-07-24T10:18:04;97056.22;;;-145.95;64.44
37648;BME280;23490;53.656;10.076;2023-07-24T10:20:38;97194.50;;;-145.95;69.04
37648;BME280;23490;53.656;10.076;2023-07-24T10:23:07;97130.50;;;-145.95;65.66
37648;BME280;23490;53.656;10.076;2023-07-24T10:25:35;97221.31;;;-145.95;67.70
37648;BME280;23490;53.656;10.076;2023-07-24T10:28:05;97241.97;;;-145.95;69.13
37648;BME280;23490;53.656;10.076;2023-07-24T10:30:40;97345.16;;;-145.95;70.23
37648;BME280;23490;53.656;10.076;2023-07-24T10:33:06;97291.50;;;-145.95;70.44
37648;BME280;23490;53.656;10.076;2023-07-24T10:35:40;97336.91;;;-145.95;71.48
37648;BME280;23490;53.656;10.076;2023-07-24T10:38:06;97365.78;;;-145.95;72.04
37648;BME280;23490;53.656;10.076;2023-07-24T10:40:33;97299.75;;;-145.95;71.66
37648;BME280;23490;53.656;10.076;2023-07-24T10:43:09;97266.72;;;-145.95;71.49
37648;BME280;23490;53.656;10.076;2023-07-24T10:45:52;97155.28;;;-145.95;72.52
37648;BME280;23490;53.656;10.076;2023-07-24T10:48:19;97023.19;;;-145.95;68.08
37648;BME280;23490;53.656;10.076;2023-07-24T10:50:46;96794.13;;;-145.95;66.34
37648;BME280;23490;53.656;10.076;2023-07-24T10:53:17;96860.16;;;-145.95;64.02
37648;BME280;23490;53.656;10.076;2023-07-24T10:55:43;97101.63;;;-145.95;67.29
37648;BME280;23490;53.656;10.076;2023-07-24T10:58:10;97114.00;;;-145.95;67.91
37648;BME280;23490;53.656;10.076;2023-07-24T11:00:36;97122.25;;;-145.95;68.86
37648;BME280;23490;53.656;10.076;2023-07-24T11:03:02;96998.41;;;-145.95;66.15
37648;BME280;23490;53.656;10.076;2023-07-24T11:05:28;96944.75;;;-145.95;65.89
37648;BME280;23490;53.656;10.076;2023-07-24T11:07:54;96639.34;;;-145.95;62.66
37648;BME280;23490;53.656;10.076;2023-07-24T11:10:25;96614.59;;;-145.95;58.57
37648;BME280;23490;53.656;10.076;2023-07-24T11:12:51;96676.50;;;-145.95;63.20
37648;BME280;23490;53.656;10.076;2023-07-24T11:15:24;96453.63;;;-145.95;56.59
37648;BME280;23490;53.656;10.076;2023-07-24T11:17:51;96445.38;;;-145.95;57.21
37648;BME280;23490;53.656;10.076;2023-07-24T11:20:16;96412.34;;;-145.95;55.89
37648;BME280;23490;53.656;10.076;2023-07-24T11:22:43;96313.31;;;-145.95;58.52
37648;BME280;23490;53.656;10.076;2023-07-24T11:25:10;96168.88;;;-145.95;53.74
37648;BME280;23490;53.656;10.076;2023-07-24T11:27:39;96201.91;;;-145.95;52.37
37648;BME280;23490;53.656;10.076;2023-07-24T11:30:07;96257.59;;;-145.95;53.54
37648;BME280;23490;53.656;10.076;2023-07-24T11:32:32;96292.69;;;-145.95;51.82
37648;BME280;23490;53.656;10.076;2023-07-24T11:34:58;96544.41;;;-145.95;53.07
37648;BME280;23490;53.656;10.076;2023-07-24T11:37:26;96453.63;;;-145.95;55.35
37648;BME280;23490;53.656;10.076;2023-07-24T11:39:59;96424.75;;;-145.95;55.07
37648;BME280;23490;53.656;10.076;2023-07-24T11:42:30;96439.19;;;-145.95;54.45
37648;BME280;23490;53.656;10.076;2023-07-24T11:44:56;96695.06;;;-145.95;55.99
37648;BME280;23490;53.656;10.076;2023-07-24T11:47:25;96874.59;;;-145.95;59.70
37648;BME280;23490;53.656;10.076;2023-07-24T11:50:00;96870.47;;;-145.95;60.80
37648;BME280;23490;53.656;10.076;2023-07-24T11:52:26;96886.97;;;-145.95;58.77
37648;BME280;23490;53.656;10.076;2023-07-24T11:54:58;96889.03;;;-145.95;60.99
37648;BME280;23490;53.656;10.076;2023-07-24T11:57:28;96659.97;;;-145.95;58.06
37648;BME280;23490;53.656;10.076;2023-07-24T11:59:54;96728.09;;;-145.95;58.09
37648;BME280;23490;53.656;10.076;2023-07-24T12:02:19;96527.91;;;-145.95;56.46
37648;BME280;23490;53.656;10.076;2023-07-24T12:04:44;96544.41;;;-145.95;56.25
37648;BME280;23490;53.656;10.076;2023-07-24T12:07:10;96672.38;;;-145.95;57.59
37648;BME280;23490;53.656;10.076;2023-07-24T12:09:36;96812.69;;;-145.95;58.29
37648;BME280;23490;53.656;10.076;2023-07-24T12:12:03;96565.06;;;-145.95;57.46
37648;BME280;23490;53.656;10.076;2023-07-24T12:14:28;96420.63;;;-145.95;56.22
37648;BME280;23490;53.656;10.076;2023-07-24T12:17:01;96201.91;;;-145.95;55.91
37648;BME280;23490;53.656;10.076;2023-07-24T12:19:30;95958.44;;;-145.95;52.00
37648;BME280;23490;53.656;10.076;2023-07-24T12:21:56;95991.44;;;-145.95;49.83